Time;durP1;ratioP1;P1;durP2;ratioP2;P2;SDS_P1;SDS_P2;PMS_P1;PMS_P2;Temp;Humidity;BMP_temperature;BMP_pressure;BME280_temperature;BME280_humidity;BME280_pressure;Samples;Min_cycle;Max_cycle;Signal;HPM_P1;HPM_P2
2022/02/13 00:00:43;;;;;;;11.20;5.00;;;3.20;75.10;;;;;;5032218;28;20021;-79
2022/02/13 00:03:09;;;;;;;11.63;5.90;;;3.10;75.00;;;;;;5015943;28;20034;-79
2022/02/13 00:05:34;;;;;;;13.20;4.83;;;3.10;75.00;;;;;;5033293;28;20427;-79
2022/02/13 00:08:00;;;;;;;11.83;5.07;;;3.10;75.30;;;;;;5033229;28;20038;-78
2022/02/13 00:10:27;;;;;;;16.43;5.37;;;3.10;75.40;;;;;;5015549;28;20025;-79
2022/02/13 00:12:52;;;;;;;10.83;5.07;;;3.00;75.50;;;;;;5033165;28;20073;-80
2022/02/13 00:15:18;;;;;;;13.37;5.80;;;3.00;75.60;;;;;;5033143;28;20029;-78
2022/02/13 00:17:44;;;;;;;14.77;5.47;;;3.00;75.90;;;;;;5015390;28;20026;-80
2022/02/13 00:20:10;;;;;;;16.20;5.80;;;3.00;75.90;;;;;;5015482;28;20022;-79
2022/02/13 00:22:35;;;;;;;12.97;5.43;;;2.90;76.20;;;;;;5033098;28;20033;-78
2022/02/13 00:25:01;;;;;;;15.27;5.13;;;2.90;76.30;;;;;;5033200;28;20052;-79
2022/02/13 00:27:27;;;;;;;12.33;5.07;;;2.90;76.00;;;;;;5031866;28;20091;-78
2022/02/13 00:29:53;;;;;;;17.13;5.27;;;2.90;76.30;;;;;;5033036;28;20029;-79
2022/02/13 00:32:19;;;;;;;12.60;5.53;;;2.80;76.20;;;;;;5019779;28;20028;-78
2022/02/13 00:34:45;;;;;;;14.07;4.80;;;2.80;75.90;;;;;;5047987;28;20082;-79
2022/02/13 00:37:11;;;;;;;12.30;4.60;;;2.80;76.00;;;;;;5040754;28;20037;-79
2022/02/13 00:39:36;;;;;;;14.27;5.33;;;2.80;76.30;;;;;;5032787;28;20036;-79
2022/02/13 00:42:02;;;;;;;17.57;5.10;;;2.80;76.30;;;;;;5031339;28;20033;-79
2022/02/13 00:44:28;;;;;;;14.93;4.80;;;2.70;76.00;;;;;;5032345;28;20046;-79
2022/02/13 00:46:54;;;;;;;12.30;4.37;;;2.70;76.40;;;;;;5052508;28;20078;-79
2022/02/13 00:49:19;;;;;;;13.30;5.10;;;2.70;76.30;;;;;;5052780;28;20047;-79
2022/02/13 00:51:45;;;;;;;11.37;4.83;;;2.70;76.60;;;;;;5034426;28;20033;-79
2022/02/13 00:54:11;;;;;;;13.70;5.60;;;2.60;76.80;;;;;;5052683;28;20025;-79
2022/02/13 00:56:36;;;;;;;13.50;5.90;;;2.60;77.40;;;;;;5056053;28;20032;-79
2022/02/13 00:59:02;;;;;;;12.60;4.97;;;2.60;77.10;;;;;;5055351;28;20029;-79
2022/02/13 01:01:28;;;;;;;15.17;4.67;;;2.60;77.10;;;;;;5055264;28;20040;-78
2022/02/13 01:03:53;;;;;;;12.50;5.07;;;2.50;77.60;;;;;;5056348;28;20111;-78
2022/02/13 01:06:19;;;;;;;14.23;5.07;;;2.50;77.10;;;;;;5056206;28;20029;-79
2022/02/13 01:08:45;;;;;;;15.33;5.23;;;2.50;77.60;;;;;;5056409;28;20533;-79
2022/02/13 01:11:10;;;;;;;11.50;5.13;;;2.50;77.50;;;;;;5056261;28;20104;-79
2022/02/13 01:13:36;;;;;;;13.10;5.10;;;2.50;78.10;;;;;;5055129;28;20036;-79
2022/02/13 01:16:02;;;;;;;12.63;5.03;;;2.40;77.60;;;;;;5056021;28;20031;-79
2022/02/13 01:18:28;;;;;;;12.87;4.80;;;2.40;77.60;;;;;;5038140;28;20029;-79
2022/02/13 01:20:54;;;;;;;12.30;5.07;;;2.40;78.00;;;;;;5055973;28;20029;-79
2022/02/13 01:23:19;;;;;;;11.33;5.13;;;2.40;78.30;;;;;;5056039;28;20146;-78
2022/02/13 01:25:45;;;;;;;13.03;4.73;;;2.30;78.20;;;;;;5055982;28;20044;-79
2022/02/13 01:28:11;;;;;;;16.47;4.87;;;2.30;78.60;;;;;;5038029;28;20032;-79
2022/02/13 01:30:37;;;;;;;9.43;4.97;;;2.20;78.80;;;;;;5038007;28;20045;-79
2022/02/13 01:33:03;;;;;;;14.07;5.13;;;2.30;78.60;;;;;;5055824;28;20022;-79
2022/02/13 01:35:29;;;;;;;11.70;4.97;;;2.30;78.80;;;;;;5055804;28;20021;-79
2022/02/13 01:37:56;;;;;;;14.03;5.20;;;2.20;78.80;;;;;;5055760;28;20029;-78
2022/02/13 01:40:22;;;;;;;14.20;5.20;;;2.20;79.00;;;;;;5037747;28;20028;-79
2022/02/13 01:42:47;;;;;;;15.70;5.57;;;2.30;79.50;;;;;;5055615;28;20029;-79
2022/02/13 01:45:14;;;;;;;15.17;5.93;;;2.30;79.60;;;;;;5055694;28;20028;-80
2022/02/13 01:47:40;;;;;;;13.47;6.10;;;2.20;80.20;;;;;;5037580;28;20468;-79
2022/02/13 01:50:09;;;;;;;17.50;5.60;;;2.20;80.10;;;;;;5054159;28;20108;-79
2022/02/13 01:52:35;;;;;;;13.67;6.07;;;2.10;80.00;;;;;;5055519;28;20037;-79
2022/02/13 01:55:01;;;;;;;14.43;5.03;;;2.10;80.00;;;;;;5055704;28;20128;-79
2022/02/13 01:57:27;;;;;;;17.00;5.60;;;2.10;80.20;;;;;;5055626;28;20520;-79
2022/02/13 01:59:53;;;;;;;12.47;5.80;;;2.10;80.60;;;;;;5037373;28;20020;-78
2022/02/13 02:02:18;;;;;;;16.37;5.37;;;2.10;81.00;;;;;;5055279;28;20094;-78
2022/02/13 02:04:44;;;;;;;15.57;6.33;;;2.00;81.40;;;;;;5055437;28;20490;-79
2022/02/13 02:07:10;;;;;;;14.33;6.00;;;2.10;81.50;;;;;;5053121;28;20033;-79
2022/02/13 02:09:35;;;;;;;14.50;5.50;;;2.10;81.70;;;;;;5055120;28;20029;-79
2022/02/13 02:12:03;;;;;;;15.30;6.60;;;2.00;81.70;;;;;;5037244;28;20032;-80
2022/02/13 02:14:29;;;;;;;22.57;6.60;;;2.00;82.00;;;;;;5055007;28;20032;-79
2022/02/13 02:16:54;;;;;;;14.10;5.77;;;2.00;82.30;;;;;;5053719;28;20029;-79
2022/02/13 02:19:20;;;;;;;14.23;5.20;;;2.00;82.80;;;;;;5053811;28;20025;-80
2022/02/13 02:21:46;;;;;;;17.27;5.67;;;2.00;82.90;;;;;;5053581;28;20025;-79
2022/02/13 02:24:13;;;;;;;16.30;6.53;;;2.00;83.20;;;;;;5054777;28;20090;-79
2022/02/13 02:26:39;;;;;;;17.07;6.23;;;2.00;83.60;;;;;;5054739;28;20029;-79
2022/02/13 02:29:05;;;;;;;15.23;6.17;;;2.10;83.60;;;;;;5054831;28;20032;-79
2022/02/13 02:31:30;;;;;;;14.03;5.90;;;2.00;83.70;;;;;;5053551;28;20028;-79
2022/02/13 02:33:56;;;;;;;13.43;6.23;;;2.00;83.70;;;;;;5036780;28;20098;-80
2022/02/13 02:36:22;;;;;;;15.83;5.23;;;1.90;83.80;;;;;;5053491;28;20052;-79
2022/02/13 02:38:48;;;;;;;14.13;5.73;;;1.90;83.80;;;;;;5053285;28;20029;-79
2022/02/13 02:41:14;;;;;;;16.37;5.77;;;1.90;84.00;;;;;;5036662;28;20075;-79
2022/02/13 02:43:40;;;;;;;12.83;6.00;;;1.90;84.40;;;;;;5053288;28;20021;-79
2022/02/13 02:46:07;;;;;;;15.30;7.13;;;1.90;84.40;;;;;;5054379;28;20021;-79
2022/02/13 02:48:36;;;;;;;14.67;6.57;;;1.90;84.60;;;;;;5054283;28;20539;-79
2022/02/13 02:51:03;;;;;;;15.50;5.93;;;1.90;84.70;;;;;;5032985;28;20037;-78
2022/02/13 02:53:29;;;;;;;14.80;5.90;;;1.90;84.90;;;;;;5034397;28;20025;-78
2022/02/13 02:55:55;;;;;;;17.30;6.00;;;1.90;85.10;;;;;;5033039;28;20025;-78
2022/02/13 02:58:21;;;;;;;12.80;6.07;;;1.90;85.10;;;;;;5032840;28;20036;-78
2022/02/13 03:00:48;;;;;;;13.80;5.60;;;1.90;85.30;;;;;;5034112;28;20109;-78
2022/02/13 03:03:13;;;;;;;12.93;5.73;;;1.90;85.20;;;;;;5034049;28;20032;-79
2022/02/13 03:05:39;;;;;;;16.43;6.47;;;1.90;85.30;;;;;;5034425;28;20104;-78
2022/02/13 03:08:05;;;;;;;14.50;6.50;;;1.90;85.30;;;;;;5034060;28;20034;-78
2022/02/13 03:10:30;;;;;;;13.07;5.80;;;1.90;85.30;;;;;;5034045;28;20104;-79
2022/02/13 03:12:56;;;;;;;12.57;5.63;;;1.80;85.10;;;;;;5033018;28;20022;-79
2022/02/13 03:15:22;;;;;;;14.07;6.50;;;1.90;85.20;;;;;;5032868;28;20075;-79
2022/02/13 03:17:47;;;;;;;12.17;5.67;;;1.90;85.30;;;;;;5032623;28;20034;-79
2022/02/13 03:20:13;;;;;;;19.60;5.70;;;1.90;85.30;;;;;;5033852;28;20375;-80
2022/02/13 03:22:38;;;;;;;13.53;5.50;;;1.90;85.90;;;;;;5049199;28;20485;-78
2022/02/13 03:25:04;;;;;;;14.23;4.73;;;1.90;85.20;;;;;;5032692;28;20446;-80
2022/02/13 03:27:30;;;;;;;13.87;5.63;;;1.90;85.30;;;;;;5032388;28;20029;-79
2022/02/13 03:29:56;;;;;;;14.30;5.87;;;2.00;85.40;;;;;;5033798;28;20156;-79
2022/02/13 03:32:22;;;;;;;16.47;5.73;;;1.90;85.30;;;;;;5032497;28;20021;-79
2022/02/13 03:34:48;;;;;;;16.17;5.57;;;1.90;85.50;;;;;;5033672;28;20052;-78
2022/02/13 03:37:15;;;;;;;10.73;5.00;;;1.90;85.60;;;;;;5032757;28;20440;-78
2022/02/13 03:39:41;;;;;;;14.93;7.07;;;1.90;85.60;;;;;;5032610;28;20075;-78
2022/02/13 03:42:07;;;;;;;13.37;5.13;;;1.90;85.50;;;;;;5033626;28;20511;-79
2022/02/13 03:44:36;;;;;;;10.30;5.60;;;1.90;85.60;;;;;;5048873;28;20052;-78
2022/02/13 03:47:05;;;;;;;11.70;5.70;;;1.90;85.60;;;;;;5033501;28;20132;-79
2022/02/13 03:49:31;;;;;;;15.20;5.70;;;1.90;85.70;;;;;;5032324;28;20113;-78
2022/02/13 03:51:57;;;;;;;12.50;5.00;;;1.90;85.70;;;;;;5032060;28;20041;-78
2022/02/13 03:54:23;;;;;;;17.40;5.43;;;1.90;85.70;;;;;;5048783;28;20516;-78
2022/02/13 03:56:48;;;;;;;12.43;5.50;;;1.90;85.70;;;;;;5033506;28;20030;-78
2022/02/13 03:59:14;;;;;;;15.50;6.30;;;1.90;85.70;;;;;;5033445;28;20033;-78
2022/02/13 04:01:40;;;;;;;10.73;4.83;;;1.90;85.80;;;;;;5032164;28;20022;-78
2022/02/13 04:04:06;;;;;;;13.17;4.93;;;1.90;85.70;;;;;;5033293;28;20535;-78
2022/02/13 04:06:32;;;;;;;13.27;5.30;;;1.90;85.90;;;;;;5048585;28;20033;-78
2022/02/13 04:08:57;;;;;;;12.30;6.30;;;1.90;86.00;;;;;;5033313;28;20405;-78
2022/02/13 04:11:23;;;;;;;11.53;4.97;;;1.90;86.00;;;;;;5032594;28;20038;-78
2022/02/13 04:13:48;;;;;;;13.00;4.83;;;1.80;86.00;;;;;;5033325;28;20030;-78
2022/02/13 04:16:14;;;;;;;12.93;5.03;;;1.80;86.00;;;;;;5031849;28;20111;-78
2022/02/13 04:18:40;;;;;;;14.17;5.70;;;1.80;86.00;;;;;;5048504;28;20034;-78
2022/02/13 04:21:05;;;;;;;12.57;5.30;;;1.80;86.30;;;;;;5015417;28;20022;-78
2022/02/13 04:23:32;;;;;;;15.23;5.30;;;1.80;86.30;;;;;;5031959;28;20053;-78
2022/02/13 04:25:59;;;;;;;11.97;5.27;;;1.80;86.40;;;;;;5032094;28;20025;-79
2022/02/13 04:28:24;;;;;;;12.37;5.53;;;1.80;86.50;;;;;;5032968;28;20500;-78
2022/02/13 04:30:50;;;;;;;11.97;4.97;;;1.80;86.50;;;;;;5035399;28;20022;-79
2022/02/13 04:33:16;;;;;;;13.27;5.13;;;1.90;86.50;;;;;;5035768;28;20025;-78
2022/02/13 04:35:42;;;;;;;13.50;5.20;;;1.80;86.50;;;;;;5035988;28;20031;-78
2022/02/13 04:38:07;;;;;;;13.50;5.13;;;1.80;86.60;;;;;;5036981;28;20064;-78
2022/02/13 04:40:33;;;;;;;10.60;4.70;;;1.80;86.60;;;;;;5035780;28;20421;-78
2022/02/13 04:42:59;;;;;;;13.67;5.07;;;1.80;86.60;;;;;;5037066;28;20026;-78
2022/02/13 04:45:25;;;;;;;15.23;4.90;;;1.80;87.00;;;;;;5035660;28;20030;-79
2022/02/13 04:47:50;;;;;;;10.57;5.07;;;1.80;86.50;;;;;;5036742;28;20469;-79
2022/02/13 04:50:21;;;;;;;15.97;5.37;;;1.80;86.50;;;;;;5029490;28;20106;-79
2022/02/13 04:52:48;;;;;;;13.47;5.13;;;1.80;86.60;;;;;;5028570;28;20092;-79
2022/02/13 04:55:14;;;;;;;12.60;5.30;;;1.80;86.70;;;;;;5015465;28;20034;-78
2022/02/13 04:57:40;;;;;;;12.93;5.40;;;1.70;86.70;;;;;;5006988;28;20038;-78
2022/02/13 05:00:07;;;;;;;12.63;5.20;;;1.80;86.70;;;;;;5036476;28;20112;-78
2022/02/13 05:02:33;;;;;;;15.50;5.00;;;1.80;86.70;;;;;;5017191;28;20462;-79
2022/02/13 05:05:01;;;;;;;9.87;4.73;;;1.80;86.80;;;;;;5023007;28;20112;-79
2022/02/13 05:07:27;;;;;;;15.50;4.43;;;1.80;86.80;;;;;;5036113;28;20052;-78
2022/02/13 05:09:52;;;;;;;10.43;4.67;;;1.80;86.90;;;;;;5016401;28;20033;-78
2022/02/13 05:12:18;;;;;;;10.80;4.63;;;1.80;86.80;;;;;;5028155;28;20040;-78
2022/02/13 05:14:43;;;;;;;14.33;5.53;;;1.80;86.80;;;;;;5016623;28;20393;-78
2022/02/13 05:17:09;;;;;;;13.40;4.67;;;1.80;87.00;;;;;;5014908;28;20034;-79
2022/02/13 05:19:35;;;;;;;10.93;5.43;;;1.80;87.00;;;;;;4998815;28;20049;-78
2022/02/13 05:22:00;;;;;;;10.37;4.70;;;1.80;87.00;;;;;;5016270;28;20038;-79
2022/02/13 05:24:26;;;;;;;9.03;4.53;;;1.80;86.90;;;;;;5015272;28;20093;-79
2022/02/13 05:26:51;;;;;;;10.57;4.77;;;1.80;86.90;;;;;;5016272;28;20470;-79
2022/02/13 05:29:17;;;;;;;10.07;4.77;;;1.80;87.10;;;;;;5039755;28;20040;-78
2022/02/13 05:31:44;;;;;;;13.30;5.00;;;1.80;87.00;;;;;;5052899;28;20434;-79
2022/02/13 05:34:14;;;;;;;9.87;4.33;;;1.80;87.10;;;;;;5033347;28;20101;-79
2022/02/13 05:36:40;;;;;;;14.07;5.20;;;1.70;87.10;;;;;;5031385;28;20544;-79
2022/02/13 05:39:06;;;;;;;13.17;5.37;;;1.80;87.30;;;;;;5031117;28;20030;-78
2022/02/13 05:41:31;;;;;;;12.40;4.97;;;1.70;87.00;;;;;;5028447;28;20038;-78
2022/02/13 05:43:57;;;;;;;9.87;3.97;;;1.70;87.10;;;;;;5034546;28;20061;-78
2022/02/13 05:46:25;;;;;;;11.40;5.30;;;1.70;87.10;;;;;;5034354;28;20040;-78
2022/02/13 05:48:51;;;;;;;11.30;4.47;;;1.70;87.20;;;;;;5033546;28;20026;-79
2022/02/13 05:51:17;;;;;;;9.73;4.57;;;1.70;87.40;;;;;;5034151;28;20099;-78
2022/02/13 05:53:42;;;;;;;12.23;4.73;;;1.70;87.30;;;;;;5035329;28;20025;-78
2022/02/13 05:56:08;;;;;;;12.20;5.47;;;1.70;87.30;;;;;;5035397;28;20128;-79
2022/02/13 05:58:38;;;;;;;13.60;5.03;;;1.70;87.30;;;;;;5035717;28;20052;-78
2022/02/13 06:01:03;;;;;;;11.17;4.60;;;1.80;87.40;;;;;;5035796;28;20481;-78
2022/02/13 06:03:29;;;;;;;8.97;4.20;;;1.70;87.30;;;;;;5035561;28;20038;-79
2022/02/13 06:05:54;;;;;;;9.93;4.47;;;1.70;87.50;;;;;;5035279;28;20029;-78
2022/02/13 06:08:20;;;;;;;9.80;4.87;;;1.70;87.60;;;;;;5033957;28;20038;-78
2022/02/13 06:10:46;;;;;;;10.47;4.97;;;1.70;87.80;;;;;;5034084;28;20056;-78
2022/02/13 06:13:12;;;;;;;11.70;4.53;;;1.70;87.80;;;;;;5017475;28;20121;-78
2022/02/13 06:15:37;;;;;;;11.30;4.73;;;1.70;87.90;;;;;;5035182;28;20029;-79
2022/02/13 06:18:03;;;;;;;12.07;5.53;;;1.70;88.60;;;;;;5017279;28;20037;-79
2022/02/13 06:20:29;;;;;;;14.00;5.37;;;1.70;88.00;;;;;;5017433;28;20032;-78
2022/02/13 06:22:54;;;;;;;12.23;4.30;;;1.70;88.00;;;;;;5033761;28;20091;-78
2022/02/13 06:25:20;;;;;;;12.97;5.10;;;1.70;88.00;;;;;;5034151;28;20057;-79
2022/02/13 06:27:46;;;;;;;10.23;4.90;;;1.70;88.30;;;;;;5034658;28;20545;-78
2022/02/13 06:30:11;;;;;;;11.77;5.10;;;1.70;88.30;;;;;;5034916;28;20033;-79
2022/02/13 06:32:37;;;;;;;9.70;4.83;;;1.70;88.40;;;;;;5034893;28;20033;-79
2022/02/13 06:35:03;;;;;;;9.97;4.40;;;1.70;88.40;;;;;;5034627;28;20042;-78
2022/02/13 06:37:30;;;;;;;13.47;5.27;;;1.70;88.40;;;;;;5034852;28;20385;-78
2022/02/13 06:39:57;;;;;;;9.90;4.40;;;1.70;88.40;;;;;;5034632;28;20040;-78
2022/02/13 06:42:23;;;;;;;14.17;4.97;;;1.70;88.40;;;;;;5034591;28;20527;-78
2022/02/13 06:44:49;;;;;;;10.73;5.03;;;1.70;88.40;;;;;;5034731;28;20034;-78
2022/02/13 06:47:15;;;;;;;10.50;4.90;;;1.70;88.60;;;;;;5034495;28;20367;-78
2022/02/13 06:49:41;;;;;;;13.57;5.17;;;1.70;88.50;;;;;;5034575;28;20035;-78
2022/02/13 06:52:07;;;;;;;13.40;5.13;;;1.80;88.60;;;;;;5033055;28;20046;-78
2022/02/13 06:54:33;;;;;;;13.03;5.37;;;1.80;88.40;;;;;;5034029;28;20035;-78
2022/02/13 06:56:58;;;;;;;11.07;4.77;;;1.80;88.40;;;;;;5033129;28;20091;-78
2022/02/13 06:59:24;;;;;;;9.93;4.13;;;1.80;88.30;;;;;;5034259;28;20049;-78
2022/02/13 07:01:50;;;;;;;10.90;4.93;;;1.80;88.40;;;;;;5032993;28;20061;-78
2022/02/13 07:04:16;;;;;;;17.90;6.23;;;1.80;88.30;;;;;;5032856;28;20034;-78
2022/02/13 07:06:41;;;;;;;10.80;5.47;;;1.90;88.40;;;;;;5034045;28;20041;-78
2022/02/13 07:09:07;;;;;;;12.63;5.60;;;1.90;88.30;;;;;;5033035;28;20456;-78
2022/02/13 07:11:33;;;;;;;13.10;5.00;;;1.90;88.30;;;;;;5032778;28;20108;-78
2022/02/13 07:13:59;;;;;;;12.03;5.17;;;1.90;88.20;;;;;;5032780;28;20033;-78
2022/02/13 07:16:26;;;;;;;12.50;5.30;;;2.00;88.90;;;;;;5033858;28;20109;-78
2022/02/13 07:18:52;;;;;;;14.47;5.17;;;2.00;88.20;;;;;;5034447;28;20045;-79
2022/02/13 07:21:18;;;;;;;13.20;4.73;;;2.00;88.30;;;;;;5032853;28;20385;-78
2022/02/13 07:23:43;;;;;;;11.50;5.33;;;2.00;88.20;;;;;;5033920;28;20025;-78
2022/02/13 07:26:10;;;;;;;12.53;5.40;;;2.00;88.10;;;;;;5033850;28;20491;-78
2022/02/13 07:31:20;;;;;;;11.93;4.65;;;2.10;88.10;;;;;;5034233;28;20064;-78
2022/02/13 07:33:46;;;;;;;12.33;5.30;;;2.10;88.00;;;;;;5033588;28;20033;-78
2022/02/13 07:36:12;;;;;;;12.17;5.63;;;2.10;87.90;;;;;;5032468;28;20029;-80
2022/02/13 07:38:37;;;;;;;15.30;5.70;;;2.20;87.90;;;;;;5032376;28;20156;-79
2022/02/13 07:41:03;;;;;;;12.73;5.40;;;2.20;87.80;;;;;;5032585;28;20041;-79
2022/02/13 07:43:29;;;;;;;14.10;5.10;;;2.20;87.80;;;;;;5015960;28;20033;-79
2022/02/13 07:45:54;;;;;;;11.07;4.73;;;2.30;87.90;;;;;;5033200;28;20044;-79
2022/02/13 07:48:20;;;;;;;11.67;5.13;;;2.30;87.70;;;;;;4999550;28;20025;-79
2022/02/13 07:50:45;;;;;;;10.53;5.07;;;2.40;87.70;;;;;;5032061;28;20128;-79
2022/02/13 07:53:11;;;;;;;10.40;5.17;;;2.40;87.40;;;;;;4999380;28;20026;-79
2022/02/13 07:55:37;;;;;;;11.00;5.17;;;2.50;87.30;;;;;;5033361;28;20080;-79
2022/02/13 07:58:02;;;;;;;13.17;5.23;;;2.50;87.20;;;;;;5031654;28;20068;-79
2022/02/13 08:00:28;;;;;;;10.37;4.73;;;2.60;87.00;;;;;;5033242;28;20131;-79
2022/02/13 08:02:54;;;;;;;10.60;5.20;;;2.70;87.70;;;;;;5031791;28;20111;-78
2022/02/13 08:05:19;;;;;;;12.63;5.57;;;2.70;86.90;;;;;;5031213;28;20038;-78
2022/02/13 08:07:47;;;;;;;10.13;4.80;;;2.80;86.90;;;;;;5031867;28;20041;-78
2022/02/13 08:10:16;;;;;;;12.67;4.97;;;2.80;86.80;;;;;;5033432;28;20458;-78
2022/02/13 08:12:42;;;;;;;12.33;4.60;;;2.90;86.70;;;;;;5033025;28;20390;-79
2022/02/13 08:15:08;;;;;;;10.80;4.67;;;2.90;86.50;;;;;;5031972;28;20034;-78
2022/02/13 08:17:33;;;;;;;13.40;5.43;;;3.00;86.20;;;;;;5033055;28;20531;-78
2022/02/13 08:19:59;;;;;;;11.10;4.47;;;3.00;86.50;;;;;;5015436;28;20176;-78
2022/02/13 08:22:25;;;;;;;11.33;5.70;;;3.10;85.90;;;;;;5030007;28;20049;-79
2022/02/13 08:24:51;;;;;;;11.17;5.63;;;3.10;85.70;;;;;;5031092;28;20037;-80
2022/02/13 08:27:16;;;;;;;13.80;5.90;;;3.10;85.60;;;;;;5031765;28;20042;-79
2022/02/13 08:29:42;;;;;;;12.10;5.37;;;3.20;85.50;;;;;;5015310;28;20017;-80
2022/02/13 08:32:08;;;;;;;11.97;5.63;;;3.30;85.30;;;;;;5015160;28;20036;-79
2022/02/13 08:34:34;;;;;;;11.97;4.30;;;3.30;85.20;;;;;;5031670;28;20108;-80
2022/02/13 08:37:00;;;;;;;12.90;5.47;;;3.30;85.00;;;;;;5031866;28;20124;-79
2022/02/13 08:39:25;;;;;;;10.70;4.67;;;3.40;84.70;;;;;;5031546;28;20029;-80
2022/02/13 08:41:51;;;;;;;11.37;5.40;;;3.50;84.50;;;;;;5031666;28;20088;-80
2022/02/13 08:44:17;;;;;;;11.90;5.70;;;3.50;84.40;;;;;;5032930;28;20029;-79
2022/02/13 08:46:42;;;;;;;9.40;4.93;;;3.70;84.50;;;;;;5024382;28;20068;-79
2022/02/13 08:49:09;;;;;;;10.60;4.43;;;3.60;84.30;;;;;;5045115;28;20405;-80
2022/02/13 08:51:34;;;;;;;10.10;4.67;;;3.70;84.20;;;;;;5027917;28;20075;-80
2022/02/13 08:54:00;;;;;;;10.63;5.50;;;3.70;84.10;;;;;;5026384;28;20124;-81
2022/02/13 08:56:26;;;;;;;11.00;5.20;;;3.80;84.00;;;;;;5031531;28;20022;-80
2022/02/13 08:58:55;;;;;;;12.33;5.03;;;3.90;83.80;;;;;;5031809;28;20429;-79
2022/02/13 09:01:21;;;;;;;11.20;4.73;;;3.90;83.70;;;;;;5031623;28;20493;-79
2022/02/13 09:03:46;;;;;;;9.40;4.70;;;4.00;83.10;;;;;;5031443;28;20029;-79
2022/02/13 09:06:12;;;;;;;9.97;5.07;;;4.00;82.70;;;;;;5032700;28;20033;-79
2022/02/13 09:08:38;;;;;;;8.57;4.53;;;4.10;83.00;;;;;;5027709;28;20117;-79
2022/02/13 09:11:03;;;;;;;9.90;4.87;;;4.20;82.40;;;;;;5031080;28;20179;-80
2022/02/13 09:13:29;;;;;;;12.90;4.80;;;4.20;83.10;;;;;;5031182;28;20478;-79
2022/02/13 09:15:54;;;;;;;10.67;4.37;;;4.30;82.20;;;;;;5025767;28;20426;-80
2022/02/13 09:18:20;;;;;;;9.80;5.10;;;4.40;82.20;;;;;;5028754;28;20088;-79
2022/02/13 09:20:46;;;;;;;14.17;5.40;;;4.50;82.00;;;;;;5034510;28;20025;-79
2022/02/13 09:23:13;;;;;;;12.00;4.77;;;4.60;81.70;;;;;;5051326;28;20029;-79
2022/02/13 09:25:40;;;;;;;11.23;4.53;;;4.60;81.80;;;;;;5051025;28;20041;-78
2022/02/13 09:28:06;;;;;;;9.50;4.80;;;4.80;81.70;;;;;;5035783;28;20022;-80
2022/02/13 09:30:32;;;;;;;8.40;4.70;;;4.90;81.00;;;;;;5035846;28;20087;-79
2022/02/13 09:32:58;;;;;;;7.97;3.87;;;5.00;80.70;;;;;;5034471;28;20021;-79
2022/02/13 09:35:23;;;;;;;8.87;4.53;;;5.10;80.70;;;;;;5033809;28;20029;-79
2022/02/13 09:37:50;;;;;;;9.97;5.50;;;5.10;80.30;;;;;;5031830;28;20089;-78
2022/02/13 09:40:19;;;;;;;10.00;4.63;;;5.20;79.80;;;;;;5013550;28;20033;-78
2022/02/13 09:42:47;;;;;;;8.93;4.67;;;5.30;79.50;;;;;;5034945;28;20029;-80
2022/02/13 09:45:13;;;;;;;8.37;4.23;;;5.30;79.40;;;;;;5011418;28;20426;-78
2022/02/13 09:47:39;;;;;;;11.33;4.70;;;5.40;79.20;;;;;;5031212;28;20021;-78
2022/02/13 09:50:06;;;;;;;9.63;4.90;;;5.50;78.80;;;;;;5050159;28;20075;-78
2022/02/13 09:52:32;;;;;;;12.60;4.43;;;5.50;79.00;;;;;;5046941;28;20072;-78
2022/02/13 09:54:58;;;;;;;9.30;4.40;;;5.60;78.40;;;;;;5038973;28;20080;-78
2022/02/13 10:00:09;;;;;;;8.10;4.38;;;5.80;78.00;;;;;;5030142;28;20044;-78
2022/02/13 10:02:35;;;;;;;8.80;4.67;;;5.90;77.90;;;;;;5043947;28;20072;-78
2022/02/13 10:05:03;;;;;;;10.37;5.33;;;6.10;77.90;;;;;;5051807;28;20064;-77
2022/02/13 10:07:32;;;;;;;10.50;4.77;;;6.30;77.20;;;;;;5035097;28;20089;-78
2022/02/13 10:09:59;;;;;;;9.90;4.70;;;6.40;76.20;;;;;;5033636;28;20063;-77
2022/02/13 10:12:41;;;;;;;7.73;4.17;;;6.70;76.20;;;;;;5038594;28;20485;-79
2022/02/13 10:15:22;;;;;;;8.00;4.10;;;7.00;75.70;;;;;;5036733;28;20025;-78
2022/02/13 10:17:55;;;;;;;11.23;4.50;;;7.40;75.10;;;;;;5054984;28;20037;-79
2022/02/13 10:20:26;;;;;;;8.53;4.23;;;7.80;74.80;;;;;;5036935;28;20033;-78
2022/02/13 10:22:52;;;;;;;5.93;3.63;;;8.10;73.20;;;;;;5037059;28;20074;-77
2022/02/13 10:25:17;;;;;;;9.27;3.73;;;8.30;73.30;;;;;;5054997;28;20036;-79
2022/02/13 10:27:48;;;;;;;9.52;4.35;;;8.80;73.10;;;;;;5019680;28;20389;-79
2022/02/13 10:30:33;;;;;;;6.25;3.13;;;9.20;71.50;;;;;;5036932;28;20033;-78
2022/02/13 10:33:16;;;;;;;6.55;3.30;;;9.50;70.30;;;;;;5054886;28;20110;-78
2022/02/13 10:36:00;;;;;;;9.43;3.83;;;9.90;69.70;;;;;;5050155;28;20488;-78
2022/02/13 10:38:29;;;;;;;8.55;3.08;;;10.10;69.50;;;;;;5054604;28;20357;-80
2022/02/13 10:41:29;;;;;;;5.65;2.88;;;10.50;67.70;;;;;;5039507;28;20063;-81
2022/02/13 10:44:05;;;;;;;7.28;3.15;;;10.90;66.10;;;;;;5036973;28;20052;-77
2022/02/13 10:46:39;;;;;;;5.43;2.85;;;11.10;65.30;;;;;;5046476;28;20488;-79
2022/02/13 10:49:06;;;;;;;5.80;2.97;;;11.40;64.60;;;;;;5054380;28;20021;-79
2022/02/13 10:51:33;;;;;;;5.95;2.75;;;11.70;63.40;;;;;;5036730;28;20477;-79
2022/02/13 10:54:02;;;;;;;5.25;2.70;;;11.90;62.60;;;;;;5054025;28;20040;-79
2022/02/13 10:56:28;;;;;;;5.22;2.47;;;12.20;62.70;;;;;;5054249;28;20484;-79
2022/02/13 10:58:55;;;;;;;5.95;2.47;;;12.50;60.70;;;;;;5036375;28;20033;-79
2022/02/13 11:01:23;;;;;;;5.15;2.47;;;12.80;60.90;;;;;;5054488;28;20025;-79
2022/02/13 11:03:51;;;;;;;6.45;2.42;;;13.00;59.10;;;;;;5054187;28;20397;-78
2022/02/13 11:06:17;;;;;;;5.95;2.90;;;13.30;58.70;;;;;;5036223;28;20447;-80
2022/02/13 11:08:56;;;;;;;4.32;2.30;;;13.40;57.30;;;;;;5054050;28;20128;-80
2022/02/13 11:11:22;;;;;;;7.68;2.55;;;13.50;57.50;;;;;;5054023;28;20465;-82
2022/02/13 11:13:49;;;;;;;5.55;2.65;;;13.90;56.80;;;;;;5054561;28;20037;-79
2022/02/13 11:16:32;;;;;;;4.18;2.05;;;14.20;56.50;;;;;;5019442;28;20068;-80
2022/02/13 11:19:10;;;;;;;4.13;2.05;;;14.30;54.80;;;;;;5053813;28;20021;-79
2022/02/13 11:21:38;;;;;;;4.78;1.95;;;14.40;54.50;;;;;;5036159;28;20105;-79
2022/02/13 11:24:04;;;;;;;4.38;2.20;;;14.40;53.50;;;;;;5035790;28;20029;-79
2022/02/13 11:26:40;;;;;;;5.13;2.03;;;14.50;53.40;;;;;;5035776;28;20032;-82
2022/02/13 11:29:16;;;;;;;5.40;2.45;;;14.50;52.80;;;;;;5053736;28;20099;-80
2022/02/13 11:31:55;;;;;;;4.80;2.08;;;14.60;51.90;;;;;;5036094;28;20032;-77
2022/02/13 11:34:27;;;;;;;4.40;1.77;;;14.70;52.80;;;;;;5035509;28;20017;-79
2022/02/13 11:37:07;;;;;;;4.25;1.55;;;15.00;52.80;;;;;;5053056;28;20029;-79
2022/02/13 11:39:42;;;;;;;4.15;2.03;;;15.10;52.30;;;;;;5051603;28;20033;-80
2022/02/13 11:42:20;;;;;;;6.68;2.55;;;15.30;51.70;;;;;;5053482;28;20028;-80
2022/02/13 11:44:57;;;;;;;5.80;2.47;;;15.40;51.40;;;;;;5035992;28;20103;-79
2022/02/13 11:47:32;;;;;;;5.47;2.75;;;15.40;51.70;;;;;;5019236;28;20032;-80
2022/02/13 11:50:11;;;;;;;4.47;2.60;;;15.40;51.00;;;;;;5035737;28;20021;-79
2022/02/13 11:52:42;;;;;;;6.05;2.65;;;15.30;51.20;;;;;;5053281;28;20036;-80
2022/02/13 11:55:18;;;;;;;5.55;2.80;;;15.30;51.30;;;;;;5035439;28;20469;-79
2022/02/13 11:58:12;;;;;;;5.47;2.55;;;15.10;51.30;;;;;;5019555;28;20063;-80
2022/02/13 12:00:47;;;;;;;5.32;2.85;;;15.10;51.90;;;;;;5048869;28;20155;-79
2022/02/13 12:03:25;;;;;;;6.57;2.80;;;15.30;51.50;;;;;;5052385;28;20112;-79
2022/02/13 12:06:02;;;;;;;5.57;2.35;;;15.20;51.60;;;;;;5052822;28;20100;-82
2022/02/13 12:08:28;;;;;;;11.77;2.70;;;15.30;51.50;;;;;;5052599;28;20044;-81
2022/02/13 12:11:08;;;;;;;5.07;2.28;;;15.50;51.20;;;;;;5017696;28;20033;-79
2022/02/13 12:13:36;;;;;;;5.07;2.40;;;15.50;51.10;;;;;;5042381;28;20017;-79
2022/02/13 12:16:03;;;;;;;4.22;2.20;;;15.70;51.70;;;;;;5035147;28;20024;-79
2022/02/13 12:18:29;;;;;;;4.47;2.05;;;15.80;51.50;;;;;;5035485;28;20155;-79
2022/02/13 12:21:02;;;;;;;6.70;2.58;;;16.10;51.50;;;;;;5053137;28;20040;-79
2022/02/13 12:23:29;;;;;;;6.18;2.70;;;16.30;50.40;;;;;;5024424;28;20017;-83
2022/02/13 12:25:55;;;;;;;7.38;3.28;;;16.30;49.80;;;;;;5015460;28;20486;-80
2022/02/13 12:28:20;;;;;;;5.88;2.88;;;16.30;49.70;;;;;;5017800;28;20063;-80
2022/02/13 12:30:54;;;;;;;6.18;2.53;;;16.40;49.80;;;;;;5053031;28;20028;-79
2022/02/13 12:33:22;;;;;;;4.93;2.00;;;16.50;50.20;;;;;;5052972;28;20056;-78
2022/02/13 12:35:48;;;;;;;6.43;2.70;;;16.60;50.20;;;;;;5052966;28;20547;-79
2022/02/13 12:38:14;;;;;;;5.28;2.40;;;16.70;49.40;;;;;;5034948;28;20528;-79
2022/02/13 12:40:44;;;;;;;5.75;2.22;;;16.70;49.30;;;;;;5052806;28;20032;-78
2022/02/13 12:43:10;;;;;;;4.40;2.53;;;16.60;49.20;;;;;;5053088;28;20033;-79
2022/02/13 12:45:37;;;;;;;5.95;2.70;;;16.50;49.00;;;;;;5034674;28;20029;-78
2022/02/13 12:48:06;;;;;;;4.35;2.38;;;16.20;49.00;;;;;;5052980;28;20032;-78
2022/02/13 12:50:40;;;;;;;4.72;2.67;;;16.00;49.40;;;;;;5052773;28;20412;-78
2022/02/13 12:53:11;;;;;;;5.00;2.15;;;15.90;50.00;;;;;;5055361;28;20045;-78